Time;durP1;ratioP1;P1;durP2;ratioP2;P2;SDS_P1;SDS_P2;PMS_P1;PMS_P2;Temp;Humidity;BMP_temperature;BMP_pressure;BME280_temperature;BME280_humidity;BME280_pressure;Samples;Min_cycle;Max_cycle;Signal;HPM_P1;HPM_P2
2022/06/11 00:00:13;;;;;;;0.70;0.70;;;;;;;;;;5050593;28;20480;-78
2022/06/11 00:02:40;;;;;;;0.70;0.60;;;;;;;;;;5051239;28;20455;-78
2022/06/11 00:05:07;;;;;;;0.70;0.70;;;;;;;;;;5051615;28;20442;-78
2022/06/11 00:07:34;;;;;;;0.80;0.70;;;;;;;;;;5060093;28;20500;-77
2022/06/11 00:10:03;;;;;;;0.70;0.60;;;;;;;;;;5044735;28;20432;-78
2022/06/11 00:12:31;;;;;;;0.70;0.60;;;;;;;;;;5035059;28;20871;-78
2022/06/11 00:15:01;;;;;;;0.80;0.70;;;;;;;;;;5052614;28;20468;-77
2022/06/11 00:17:28;;;;;;;0.80;0.70;;;;;;;;;;5050837;28;20927;-77
2022/06/11 00:19:55;;;;;;;0.70;0.60;;;;;;;;;;5052199;28;20470;-77
2022/06/11 00:22:24;;;;;;;0.70;0.70;;;;;;;;;;5051284;28;20456;-77
2022/06/11 00:24:52;;;;;;;0.80;0.70;;;;;;;;;;5051623;28;20419;-77
2022/06/11 00:27:19;;;;;;;0.70;0.60;;;;;;;;;;5051567;28;20442;-77
2022/06/11 00:29:47;;;;;;;0.70;0.60;;;;;;;;;;5055181;28;20478;-78
2022/06/11 00:32:16;;;;;;;0.70;0.70;;;;;;;;;;5055217;28;20450;-77
2022/06/11 00:34:45;;;;;;;0.70;0.70;;;;;;;;;;5055548;28;20505;-77
2022/06/11 00:37:12;;;;;;;0.80;0.80;;;;;;;;;;5053741;28;20482;-78
2022/06/11 00:39:40;;;;;;;0.70;0.70;;;;;;;;;;5035077;28;20458;-77
2022/06/11 00:42:12;;;;;;;0.80;0.70;;;;;;;;;;5049867;28;20440;-77
2022/06/11 00:44:39;;;;;;;0.70;0.60;;;;;;;;;;5046357;28;20468;-77
2022/06/11 00:47:06;;;;;;;0.70;0.60;;;;;;;;;;5053901;28;20413;-79
2022/06/11 00:49:39;;;;;;;0.70;0.60;;;;;;;;;;5055184;28;20430;-77
2022/06/11 00:52:16;;;;;;;0.70;0.70;;;;;;;;;;5055015;28;20839;-77
2022/06/11 00:54:46;;;;;;;0.70;0.60;;;;;;;;;;5054462;28;20887;-79
2022/06/11 00:57:15;;;;;;;0.70;0.60;;;;;;;;;;5053522;28;20447;-79
2022/06/11 00:59:43;;;;;;;0.70;0.60;;;;;;;;;;5034813;28;20846;-79
2022/06/11 01:02:11;;;;;;;0.70;0.70;;;;;;;;;;5051692;28;20460;-77
2022/06/11 01:04:48;;;;;;;0.70;0.60;;;;;;;;;;5050537;28;20814;-77
2022/06/11 01:07:31;;;;;;;0.70;0.60;;;;;;;;;;5035546;28;20523;-77
2022/06/11 01:10:06;;;;;;;0.70;0.60;;;;;;;;;;5052306;28;20444;-77
2022/06/11 01:12:40;;;;;;;0.70;0.60;;;;;;;;;;5054029;28;20479;-78
2022/06/11 01:15:12;;;;;;;0.70;0.60;;;;;;;;;;5055361;28;20455;-77
2022/06/11 01:17:45;;;;;;;0.70;0.70;;;;;;;;;;5037662;28;20502;-77
2022/06/11 01:20:21;;;;;;;0.70;0.60;;;;;;;;;;5071600;28;20903;-77
2022/06/11 01:23:14;;;;;;;0.70;0.63;;;;;;;;;;5055489;28;20479;-77
2022/06/11 01:25:51;;;;;;;0.70;0.60;;;;;;;;;;5053566;28;20450;-78
2022/06/11 01:28:26;;;;;;;0.70;0.60;;;;;;;;;;5042675;28;20496;-77
2022/06/11 01:31:04;;;;;;;0.80;0.80;;;;;;;;;;5034598;28;20844;-78
2022/06/11 01:33:37;;;;;;;0.80;0.70;;;;;;;;;;5034929;28;20417;-78
2022/06/11 01:36:11;;;;;;;0.70;0.70;;;;;;;;;;5034283;28;20465;-78
2022/06/11 01:38:40;;;;;;;0.80;0.70;;;;;;;;;;5044121;28;20471;-78
2022/06/11 01:41:22;;;;;;;0.70;0.60;;;;;;;;;;5042174;28;20438;-78
2022/06/11 01:43:52;;;;;;;0.80;0.80;;;;;;;;;;5033774;28;20436;-78
2022/06/11 01:46:24;;;;;;;0.80;0.70;;;;;;;;;;5034001;28;20453;-79
2022/06/11 01:48:53;;;;;;;0.70;0.67;;;;;;;;;;5049266;28;20471;-79
2022/06/11 01:51:27;;;;;;;0.70;0.70;;;;;;;;;;5050207;28;20472;-77
2022/06/11 01:54:00;;;;;;;0.70;0.60;;;;;;;;;;5037195;28;20555;-77
2022/06/11 01:56:47;;;;;;;0.80;0.70;;;;;;;;;;5053129;28;20804;-77
2022/06/11 01:59:19;;;;;;;0.70;0.70;;;;;;;;;;5004186;28;20960;-78
2022/06/11 02:01:53;;;;;;;0.80;0.70;;;;;;;;;;5016858;28;20499;-80
2022/06/11 02:04:29;;;;;;;0.70;0.60;;;;;;;;;;5035903;28;20456;-78
2022/06/11 02:06:59;;;;;;;0.80;0.70;;;;;;;;;;5051673;28;20448;-78
2022/06/11 02:09:31;;;;;;;0.80;0.70;;;;;;;;;;5052516;28;20889;-78
2022/06/11 02:12:02;;;;;;;0.70;0.60;;;;;;;;;;5051145;28;20448;-78
2022/06/11 02:14:31;;;;;;;0.70;0.60;;;;;;;;;;5035241;28;20563;-79
2022/06/11 02:17:03;;;;;;;0.70;0.60;;;;;;;;;;5051631;28;20420;-78
2022/06/11 02:19:33;;;;;;;0.70;0.70;;;;;;;;;;5051232;28;21019;-78
2022/06/11 02:22:02;;;;;;;0.70;0.70;;;;;;;;;;5053208;28;20477;-78
2022/06/11 02:24:30;;;;;;;0.70;0.70;;;;;;;;;;5053413;28;20460;-78
2022/06/11 02:27:00;;;;;;;0.70;0.60;;;;;;;;;;5055709;28;20785;-77
2022/06/11 02:29:31;;;;;;;0.80;0.70;;;;;;;;;;5054028;28;20784;-78
2022/06/11 02:32:02;;;;;;;0.70;0.60;;;;;;;;;;5053178;28;20447;-78
2022/06/11 02:34:31;;;;;;;0.70;0.60;;;;;;;;;;5052879;28;20482;-78
2022/06/11 02:36:59;;;;;;;0.80;0.80;;;;;;;;;;5051609;28;20438;-81
2022/06/11 02:39:26;;;;;;;0.70;0.60;;;;;;;;;;5052784;28;20449;-79
2022/06/11 02:41:54;;;;;;;0.70;0.70;;;;;;;;;;5060760;28;20478;-78
2022/06/11 02:44:21;;;;;;;0.70;0.70;;;;;;;;;;5069021;28;20748;-78
2022/06/11 02:46:48;;;;;;;0.70;0.70;;;;;;;;;;5052201;28;20513;-78
2022/06/11 02:49:17;;;;;;;0.70;0.70;;;;;;;;;;5071226;28;20537;-79
2022/06/11 02:51:46;;;;;;;0.70;0.60;;;;;;;;;;5072448;28;20480;-78
2022/06/11 02:54:15;;;;;;;0.73;0.63;;;;;;;;;;5050587;28;21060;-78
2022/06/11 02:56:42;;;;;;;0.70;0.70;;;;;;;;;;5053012;28;20426;-78
2022/06/11 02:59:10;;;;;;;0.70;0.60;;;;;;;;;;5067741;28;20462;-78
2022/06/11 03:01:37;;;;;;;0.80;0.77;;;;;;;;;;5052050;28;20451;-79
2022/06/11 03:04:04;;;;;;;0.70;0.60;;;;;;;;;;5052914;28;20440;-78
2022/06/11 03:06:31;;;;;;;0.70;0.70;;;;;;;;;;5053346;28;20452;-78
2022/06/11 03:08:59;;;;;;;0.70;0.60;;;;;;;;;;5052500;28;20451;-78
2022/06/11 03:11:27;;;;;;;0.70;0.70;;;;;;;;;;5052130;28;20451;-78
2022/06/11 03:13:54;;;;;;;0.70;0.63;;;;;;;;;;5051953;28;20553;-78
2022/06/11 03:16:23;;;;;;;0.70;0.60;;;;;;;;;;5032346;28;20452;-79
2022/06/11 03:18:50;;;;;;;0.70;0.70;;;;;;;;;;5036770;28;20960;-78
2022/06/11 03:21:17;;;;;;;0.70;0.70;;;;;;;;;;5050808;28;20567;-78
2022/06/11 03:23:44;;;;;;;0.80;0.60;;;;;;;;;;5051143;28;20453;-78
2022/06/11 03:26:12;;;;;;;0.70;0.70;;;;;;;;;;5051120;28;20428;-80
2022/06/11 03:28:40;;;;;;;0.70;0.70;;;;;;;;;;5066029;28;20535;-78
2022/06/11 03:31:07;;;;;;;0.70;0.70;;;;;;;;;;5051873;28;20483;-78
2022/06/11 03:33:35;;;;;;;0.70;0.60;;;;;;;;;;5034577;28;20439;-79
2022/06/11 03:36:03;;;;;;;0.70;0.60;;;;;;;;;;5035137;28;20841;-78
2022/06/11 03:38:29;;;;;;;0.80;0.80;;;;;;;;;;5062529;28;20583;-78
2022/06/11 03:40:56;;;;;;;0.70;0.70;;;;;;;;;;5057844;28;20448;-78
2022/06/11 03:43:24;;;;;;;0.70;0.60;;;;;;;;;;5035258;28;20444;-78
2022/06/11 03:45:51;;;;;;;0.70;0.63;;;;;;;;;;5051540;28;20566;-78
2022/06/11 03:48:19;;;;;;;0.80;0.80;;;;;;;;;;5061581;28;20451;-78
2022/06/11 03:50:46;;;;;;;0.70;0.63;;;;;;;;;;5055230;28;22276;-78
2022/06/11 03:53:13;;;;;;;0.80;0.73;;;;;;;;;;5055019;28;20543;-78
2022/06/11 03:55:41;;;;;;;0.80;0.70;;;;;;;;;;5036833;28;20447;-77
2022/06/11 03:58:09;;;;;;;0.70;0.63;;;;;;;;;;5033050;28;20446;-78
2022/06/11 04:03:25;;;;;;;0.80;0.80;;;;;;;;;;5075694;28;20442;-78
2022/06/11 04:05:52;;;;;;;0.80;0.70;;;;;;;;;;5059286;28;20471;-78
2022/06/11 04:08:20;;;;;;;0.70;0.70;;;;;;;;;;5047245;28;20534;-78
2022/06/11 04:10:49;;;;;;;0.83;0.80;;;;;;;;;;5039107;28;20456;-78
2022/06/11 04:13:16;;;;;;;0.70;0.70;;;;;;;;;;5072396;28;20972;-78
2022/06/11 04:15:46;;;;;;;0.70;0.70;;;;;;;;;;5055416;28;20502;-78
2022/06/11 04:18:20;;;;;;;0.70;0.60;;;;;;;;;;5045874;28;20967;-78
2022/06/11 04:20:48;;;;;;;0.80;0.70;;;;;;;;;;5037125;28;20452;-77
2022/06/11 04:23:15;;;;;;;0.70;0.70;;;;;;;;;;5043678;28;20952;-78
2022/06/11 04:25:42;;;;;;;0.80;0.70;;;;;;;;;;5057191;28;20417;-78
2022/06/11 04:28:11;;;;;;;0.70;0.60;;;;;;;;;;5070500;28;20450;-78
2022/06/11 04:30:38;;;;;;;0.70;0.60;;;;;;;;;;5055393;28;20459;-78
2022/06/11 04:33:07;;;;;;;0.80;0.73;;;;;;;;;;5054901;28;20448;-78
2022/06/11 04:35:34;;;;;;;0.70;0.60;;;;;;;;;;5054809;28;20475;-78
2022/06/11 04:38:01;;;;;;;0.80;0.70;;;;;;;;;;5048889;28;20461;-77
2022/06/11 04:40:34;;;;;;;0.70;0.60;;;;;;;;;;5035722;28;20413;-78
2022/06/11 04:43:01;;;;;;;0.80;0.80;;;;;;;;;;5068519;28;20424;-77
2022/06/11 04:45:28;;;;;;;0.70;0.70;;;;;;;;;;5055451;28;20778;-78
2022/06/11 04:47:54;;;;;;;0.80;0.70;;;;;;;;;;5049025;28;20449;-78
2022/06/11 04:50:23;;;;;;;0.73;0.70;;;;;;;;;;5034864;28;20539;-78
2022/06/11 04:52:51;;;;;;;0.80;0.70;;;;;;;;;;5034442;28;20460;-78
2022/06/11 04:55:18;;;;;;;0.70;0.60;;;;;;;;;;5035120;28;20446;-78
2022/06/11 04:57:46;;;;;;;0.70;0.60;;;;;;;;;;5037267;28;20480;-79
2022/06/11 05:00:15;;;;;;;0.70;0.60;;;;;;;;;;5035777;28;20444;-78
2022/06/11 05:02:42;;;;;;;0.70;0.60;;;;;;;;;;5067976;28;20577;-78
2022/06/11 05:05:09;;;;;;;0.70;0.60;;;;;;;;;;5054891;28;20394;-78
2022/06/11 05:07:37;;;;;;;0.70;0.60;;;;;;;;;;5056710;28;20939;-78
2022/06/11 05:10:09;;;;;;;0.70;0.70;;;;;;;;;;5046067;28;20487;-78
2022/06/11 05:12:36;;;;;;;0.70;0.70;;;;;;;;;;5053714;28;20407;-78
2022/06/11 05:15:04;;;;;;;0.70;0.60;;;;;;;;;;5054400;28;20442;-79
2022/06/11 05:17:30;;;;;;;0.70;0.70;;;;;;;;;;5070470;28;20460;-78
2022/06/11 05:19:58;;;;;;;0.70;0.60;;;;;;;;;;5054032;28;20422;-78
2022/06/11 05:22:25;;;;;;;0.70;0.60;;;;;;;;;;5053897;28;20517;-77
2022/06/11 05:24:55;;;;;;;0.70;0.60;;;;;;;;;;5054306;28;20498;-78
2022/06/11 05:27:24;;;;;;;0.70;0.60;;;;;;;;;;5053863;28;20806;-80
2022/06/11 05:29:52;;;;;;;0.70;0.70;;;;;;;;;;5049460;28;20503;-77
2022/06/11 05:32:20;;;;;;;0.80;0.70;;;;;;;;;;5054067;28;20459;-77
2022/06/11 05:34:48;;;;;;;0.70;0.70;;;;;;;;;;5055170;28;20379;-78
2022/06/11 05:37:15;;;;;;;0.70;0.70;;;;;;;;;;5037217;28;21051;-78
2022/06/11 05:39:43;;;;;;;0.70;0.70;;;;;;;;;;5052432;28;20426;-79
2022/06/11 05:42:11;;;;;;;0.70;0.70;;;;;;;;;;5053532;28;20445;-77
2022/06/11 05:44:38;;;;;;;0.70;0.60;;;;;;;;;;5037343;28;20441;-80
2022/06/11 05:47:06;;;;;;;0.70;0.70;;;;;;;;;;5053284;28;20406;-77
2022/06/11 05:49:34;;;;;;;0.70;0.60;;;;;;;;;;5073812;28;20443;-77
2022/06/11 05:52:02;;;;;;;0.70;0.60;;;;;;;;;;5057278;28;20470;-77
2022/06/11 05:54:31;;;;;;;0.70;0.70;;;;;;;;;;5070329;28;20426;-78
2022/06/11 05:56:59;;;;;;;0.70;0.60;;;;;;;;;;5053063;28;20483;-78
2022/06/11 05:59:31;;;;;;;0.70;0.60;;;;;;;;;;5072072;28;20513;-78
2022/06/11 06:02:00;;;;;;;0.70;0.60;;;;;;;;;;5057146;28;20505;-78
2022/06/11 06:04:27;;;;;;;0.80;0.70;;;;;;;;;;5060466;28;20774;-79
2022/06/11 06:06:54;;;;;;;0.70;0.60;;;;;;;;;;5036371;28;20519;-78
2022/06/11 06:09:20;;;;;;;0.70;0.60;;;;;;;;;;5052267;28;20422;-77
2022/06/11 06:11:47;;;;;;;0.70;0.70;;;;;;;;;;5053179;28;20473;-79
2022/06/11 06:14:17;;;;;;;0.70;0.60;;;;;;;;;;5054624;28;20424;-77
2022/06/11 06:16:45;;;;;;;0.70;0.60;;;;;;;;;;5054035;28;20434;-79
2022/06/11 06:19:12;;;;;;;0.70;0.70;;;;;;;;;;5051697;28;20870;-78
2022/06/11 06:21:39;;;;;;;0.70;0.60;;;;;;;;;;5033282;28;20522;-78
2022/06/11 06:24:05;;;;;;;0.70;0.70;;;;;;;;;;5047384;28;20510;-77
2022/06/11 06:26:32;;;;;;;0.70;0.60;;;;;;;;;;5054542;28;20953;-78
2022/06/11 06:28:59;;;;;;;0.77;0.70;;;;;;;;;;5051240;28;20486;-78
2022/06/11 06:31:26;;;;;;;0.70;0.60;;;;;;;;;;5052555;28;20456;-77
2022/06/11 06:33:58;;;;;;;0.80;0.70;;;;;;;;;;5052207;28;20478;-78
2022/06/11 06:36:25;;;;;;;0.70;0.70;;;;;;;;;;5053195;28;20472;-79
2022/06/11 06:38:53;;;;;;;0.70;0.60;;;;;;;;;;5049824;28;20967;-78
2022/06/11 06:41:21;;;;;;;0.70;0.60;;;;;;;;;;5064099;28;20443;-78
2022/06/11 06:43:48;;;;;;;0.80;0.70;;;;;;;;;;5036142;28;20513;-76
2022/06/11 06:46:16;;;;;;;0.80;0.70;;;;;;;;;;5052813;28;20426;-76
2022/06/11 06:48:43;;;;;;;0.70;0.60;;;;;;;;;;5054315;28;20475;-78
2022/06/11 06:51:12;;;;;;;0.70;0.60;;;;;;;;;;5035695;28;20463;-77
2022/06/11 06:53:42;;;;;;;0.70;0.60;;;;;;;;;;5052299;28;20438;-78
2022/06/11 06:56:10;;;;;;;0.80;0.70;;;;;;;;;;5035763;28;20503;-78
2022/06/11 06:58:37;;;;;;;0.70;0.70;;;;;;;;;;5061886;28;20462;-77
2022/06/11 07:01:04;;;;;;;0.70;0.60;;;;;;;;;;5072647;28;20422;-78
2022/06/11 07:03:31;;;;;;;0.70;0.60;;;;;;;;;;5055510;28;20826;-77
2022/06/11 07:06:00;;;;;;;0.80;0.60;;;;;;;;;;5052492;28;20834;-77
2022/06/11 07:08:28;;;;;;;0.70;0.60;;;;;;;;;;5060693;28;20455;-77
2022/06/11 07:10:56;;;;;;;0.70;0.60;;;;;;;;;;5067957;28;20940;-78
2022/06/11 07:13:23;;;;;;;0.70;0.60;;;;;;;;;;5062120;28;20410;-78
2022/06/11 07:15:52;;;;;;;0.70;0.60;;;;;;;;;;5052332;28;20470;-77
2022/06/11 07:18:21;;;;;;;0.70;0.70;;;;;;;;;;5042532;28;20508;-77
2022/06/11 07:20:48;;;;;;;0.70;0.60;;;;;;;;;;5073623;28;20446;-79
2022/06/11 07:23:17;;;;;;;0.70;0.60;;;;;;;;;;5035977;28;20444;-77
2022/06/11 07:25:45;;;;;;;0.70;0.60;;;;;;;;;;5049621;28;20446;-77
2022/06/11 07:28:14;;;;;;;0.70;0.60;;;;;;;;;;5059194;28;20443;-77
2022/06/11 07:30:42;;;;;;;0.70;0.60;;;;;;;;;;5071821;28;20427;-78
2022/06/11 07:33:10;;;;;;;0.70;0.50;;;;;;;;;;5055000;28;20485;-77
2022/06/11 07:35:38;;;;;;;0.70;0.60;;;;;;;;;;5054944;28;20498;-76
2022/06/11 07:38:08;;;;;;;0.70;0.60;;;;;;;;;;5051523;28;20446;-77
2022/06/11 07:40:34;;;;;;;0.70;0.60;;;;;;;;;;5050560;28;20517;-79
2022/06/11 07:43:04;;;;;;;0.70;0.60;;;;;;;;;;5031867;28;20511;-78
2022/06/11 07:45:31;;;;;;;0.70;0.60;;;;;;;;;;5031723;28;20499;-77
2022/06/11 07:47:59;;;;;;;0.70;0.57;;;;;;;;;;5048423;28;20485;-78
2022/06/11 07:50:27;;;;;;;0.70;0.60;;;;;;;;;;5071560;28;20454;-78
2022/06/11 07:52:54;;;;;;;0.70;0.60;;;;;;;;;;5035525;28;20983;-77
2022/06/11 07:55:21;;;;;;;0.70;0.60;;;;;;;;;;5051737;28;20944;-77
2022/06/11 07:57:49;;;;;;;0.70;0.60;;;;;;;;;;5033890;28;20477;-78
2022/06/11 08:00:18;;;;;;;0.80;0.70;;;;;;;;;;5036960;28;20435;-77
2022/06/11 08:02:45;;;;;;;0.70;0.60;;;;;;;;;;5067780;28;20522;-77
2022/06/11 08:05:14;;;;;;;0.70;0.60;;;;;;;;;;5051298;28;20542;-77
2022/06/11 08:07:41;;;;;;;0.70;0.60;;;;;;;;;;5049412;28;20948;-78
2022/06/11 08:10:10;;;;;;;0.70;0.60;;;;;;;;;;5052222;28;20506;-78
2022/06/11 08:12:37;;;;;;;0.70;0.60;;;;;;;;;;5049294;28;21035;-77
2022/06/11 08:15:04;;;;;;;0.70;0.60;;;;;;;;;;5051555;28;20440;-75
2022/06/11 08:17:35;;;;;;;0.70;0.50;;;;;;;;;;5050428;28;20466;-77
2022/06/11 08:20:02;;;;;;;0.70;0.60;;;;;;;;;;5068355;28;20423;-77
2022/06/11 08:22:30;;;;;;;0.70;0.60;;;;;;;;;;5050681;28;20447;-77
2022/06/11 08:24:58;;;;;;;0.70;0.60;;;;;;;;;;5050919;28;20435;-77
2022/06/11 08:27:25;;;;;;;0.70;0.60;;;;;;;;;;5050233;28;20452;-78
2022/06/11 08:29:52;;;;;;;0.70;0.60;;;;;;;;;;5067839;28;20412;-78
2022/06/11 08:32:19;;;;;;;0.70;0.60;;;;;;;;;;5052177;28;20420;-76
2022/06/11 08:34:47;;;;;;;0.70;0.60;;;;;;;;;;5067957;28;20928;-76
2022/06/11 08:37:15;;;;;;;0.70;0.60;;;;;;;;;;5050424;28;20899;-76
2022/06/11 08:39:41;;;;;;;0.70;0.60;;;;;;;;;;5051274;28;20451;-78
2022/06/11 08:42:26;;;;;;;0.70;0.60;;;;;;;;;;5051088;28;20448;-79
2022/06/11 08:44:53;;;;;;;0.70;0.50;;;;;;;;;;5053199;28;20426;-78
2022/06/11 08:47:21;;;;;;;0.70;0.60;;;;;;;;;;5051046;28;21016;-78
2022/06/11 08:49:51;;;;;;;0.70;0.50;;;;;;;;;;5055199;28;20447;-76
2022/06/11 08:52:20;;;;;;;0.70;0.60;;;;;;;;;;5055281;28;20459;-78
2022/06/11 08:54:49;;;;;;;0.70;0.50;;;;;;;;;;5052804;28;20602;-78
2022/06/11 08:57:19;;;;;;;0.70;0.50;;;;;;;;;;5069704;28;20474;-77
2022/06/11 09:00:00;;;;;;;0.70;0.60;;;;;;;;;;5056453;28;20435;-78
2022/06/11 09:02:37;;;;;;;0.70;0.50;;;;;;;;;;5073432;28;20457;-77
2022/06/11 09:05:21;;;;;;;0.70;0.50;;;;;;;;;;5073713;28;20450;-78
2022/06/11 09:07:53;;;;;;;0.70;0.50;;;;;;;;;;5068025;28;20460;-78
2022/06/11 09:10:28;;;;;;;0.70;0.50;;;;;;;;;;5045032;28;20452;-78
2022/06/11 09:13:05;;;;;;;0.70;0.60;;;;;;;;;;5033301;28;20448;-78
2022/06/11 09:15:38;;;;;;;0.70;0.60;;;;;;;;;;5032967;28;20960;-80
2022/06/11 09:18:29;;;;;;;0.70;0.60;;;;;;;;;;5046758;28;20550;-77
2022/06/11 09:21:01;;;;;;;0.70;0.60;;;;;;;;;;5038100;28;20479;-76
2022/06/11 09:23:46;;;;;;;0.70;0.57;;;;;;;;;;5054391;28;20530;-78
2022/06/11 09:26:18;;;;;;;0.70;0.60;;;;;;;;;;5053611;28;20957;-78
2022/06/11 09:28:48;;;;;;;0.80;0.60;;;;;;;;;;5071026;28;20928;-79
2022/06/11 09:31:32;;;;;;;0.70;0.60;;;;;;;;;;5053949;28;20539;-77
2022/06/11 09:34:02;;;;;;;0.70;0.60;;;;;;;;;;5070528;28;20485;-78
2022/06/11 09:36:35;;;;;;;0.70;0.60;;;;;;;;;;5052751;28;20475;-78
2022/06/11 09:39:06;;;;;;;0.70;0.60;;;;;;;;;;5054592;28;20412;-77
2022/06/11 09:41:39;;;;;;;0.70;0.53;;;;;;;;;;5037607;28;20447;-77
2022/06/11 09:44:14;;;;;;;0.70;0.60;;;;;;;;;;5054170;28;20440;-77
2022/06/11 09:46:43;;;;;;;0.70;0.60;;;;;;;;;;5053176;28;20451;-78
2022/06/11 09:49:22;;;;;;;0.70;0.50;;;;;;;;;;5057835;28;20983;-77
2022/06/11 09:51:54;;;;;;;0.70;0.50;;;;;;;;;;5053673;28;20517;-78
2022/06/11 09:54:28;;;;;;;0.70;0.50;;;;;;;;;;5036488;28;20432;-77
2022/06/11 09:57:01;;;;;;;0.70;0.50;;;;;;;;;;5053614;28;20546;-77
2022/06/11 09:59:36;;;;;;;0.70;0.50;;;;;;;;;;5036857;28;21026;-79
2022/06/11 10:02:19;;;;;;;0.70;0.50;;;;;;;;;;5053646;28;20546;-78
2022/06/11 10:04:47;;;;;;;0.70;0.50;;;;;;;;;;5053895;28;20416;-78
2022/06/11 10:07:17;;;;;;;0.70;0.50;;;;;;;;;;5053144;28;20474;-78
2022/06/11 10:09:47;;;;;;;0.70;0.50;;;;;;;;;;5052321;28;20506;-78
2022/06/11 10:12:16;;;;;;;0.70;0.50;;;;;;;;;;5070238;28;20435;-79
2022/06/11 10:14:47;;;;;;;0.70;0.50;;;;;;;;;;5036851;28;20432;-80
2022/06/11 10:17:16;;;;;;;0.70;0.50;;;;;;;;;;5052543;28;20452;-81
2022/06/11 10:19:46;;;;;;;0.70;0.50;;;;;;;;;;5035398;28;21019;-78
2022/06/11 10:22:20;;;;;;;0.70;0.50;;;;;;;;;;5069711;28;20464;-78
2022/06/11 10:24:53;;;;;;;0.70;0.50;;;;;;;;;;5053451;28;20448;-78
2022/06/11 10:27:21;;;;;;;0.70;0.50;;;;;;;;;;5037787;28;21034;-76
2022/06/11 10:29:49;;;;;;;0.70;0.50;;;;;;;;;;5052888;28;20459;-78
2022/06/11 10:32:18;;;;;;;0.77;0.50;;;;;;;;;;5053458;28;20529;-77
2022/06/11 10:34:47;;;;;;;0.80;0.50;;;;;;;;;;5054120;28;20440;-79
2022/06/11 10:37:18;;;;;;;0.80;0.50;;;;;;;;;;5037188;28;20471;-76
2022/06/11 10:39:48;;;;;;;0.80;0.50;;;;;;;;;;5052306;28;20441;-76
2022/06/11 10:42:16;;;;;;;0.80;0.50;;;;;;;;;;5052516;28;20443;-76
2022/06/11 10:44:46;;;;;;;0.80;0.50;;;;;;;;;;5052634;28;20428;-77
2022/06/11 10:47:16;;;;;;;0.80;0.50;;;;;;;;;;5053507;28;20420;-77
2022/06/11 10:49:44;;;;;;;0.90;0.80;;;;;;;;;;5052252;28;20443;-75
2022/06/11 10:52:17;;;;;;;0.80;0.50;;;;;;;;;;5052234;28;20489;-75
2022/06/11 10:54:44;;;;;;;0.80;0.50;;;;;;;;;;5036442;28;20494;-75
2022/06/11 10:57:21;;;;;;;0.80;0.50;;;;;;;;;;5049824;28;20470;-76
2022/06/11 10:59:50;;;;;;;0.80;0.50;;;;;;;;;;5051054;28;20444;-77
2022/06/11 11:02:20;;;;;;;0.70;0.50;;;;;;;;;;5052544;28;20547;-77
2022/06/11 11:04:54;;;;;;;0.70;0.50;;;;;;;;;;5050251;28;21065;-77
2022/06/11 11:07:24;;;;;;;0.70;0.50;;;;;;;;;;5050468;28;20474;-79
2022/06/11 11:09:56;;;;;;;0.70;0.50;;;;;;;;;;5051953;28;20444;-78
2022/06/11 11:12:26;;;;;;;0.70;0.50;;;;;;;;;;5050299;28;20451;-77
2022/06/11 11:15:02;;;;;;;0.70;0.60;;;;;;;;;;5046485;28;20526;-76
2022/06/11 11:17:30;;;;;;;0.70;0.50;;;;;;;;;;5043983;28;20467;-76
2022/06/11 11:22:53;;;;;;;0.70;0.50;;;;;;;;;;5052149;28;20440;-76
2022/06/11 11:25:22;;;;;;;0.70;0.50;;;;;;;;;;5051781;28;21018;-76
2022/06/11 11:27:52;;;;;;;0.70;0.50;;;;;;;;;;5067860;28;20435;-78
2022/06/11 11:30:30;;;;;;;0.70;0.60;;;;;;;;;;5051145;28;20438;-77
2022/06/11 11:33:11;;;;;;;0.70;0.50;;;;;;;;;;5035631;28;20431;-76
2022/06/11 11:35:40;;;;;;;0.70;0.60;;;;;;;;;;5052513;28;20447;-77
2022/06/11 11:38:13;;;;;;;0.70;0.50;;;;;;;;;;5050869;28;20833;-77
2022/06/11 11:40:49;;;;;;;0.70;0.50;;;;;;;;;;5068519;28;20474;-76
2022/06/11 11:43:18;;;;;;;0.70;0.50;;;;;;;;;;5053000;28;20519;-75
2022/06/11 11:45:46;;;;;;;0.70;0.50;;;;;;;;;;5050338;28;20498;-78
2022/06/11 11:48:16;;;;;;;0.70;0.50;;;;;;;;;;5055068;28;21007;-77
2022/06/11 11:50:44;;;;;;;0.70;0.50;;;;;;;;;;5052127;28;20495;-76
2022/06/11 11:53:17;;;;;;;0.70;0.50;;;;;;;;;;5035410;28;20447;-78
2022/06/11 11:55:55;;;;;;;0.70;0.50;;;;;;;;;;5051712;28;20470;-76
2022/06/11 11:58:28;;;;;;;0.70;0.50;;;;;;;;;;5051828;28;20471;-77
2022/06/11 12:01:00;;;;;;;0.70;0.50;;;;;;;;;;5051186;28;20439;-78
2022/06/11 12:03:34;;;;;;;0.70;0.50;;;;;;;;;;5051120;28;20460;-77
2022/06/11 12:06:06;;;;;;;0.70;0.50;;;;;;;;;;5051070;28;20472;-75
2022/06/11 12:08:35;;;;;;;0.70;0.50;;;;;;;;;;5054606;28;20433;-76
2022/06/11 12:11:04;;;;;;;0.70;0.50;;;;;;;;;;5047697;28;20467;-78
2022/06/11 12:13:44;;;;;;;0.70;0.50;;;;;;;;;;5046522;28;20451;-77
2022/06/11 12:16:18;;;;;;;0.70;0.50;;;;;;;;;;5050587;28;20800;-77
2022/06/11 12:18:48;;;;;;;0.70;0.50;;;;;;;;;;5048691;28;20463;-75
2022/06/11 12:21:17;;;;;;;0.70;0.50;;;;;;;;;;5045085;28;20998;-77
2022/06/11 12:23:46;;;;;;;0.70;0.50;;;;;;;;;;5057404;28;20460;-76
2022/06/11 12:26:18;;;;;;;0.70;0.50;;;;;;;;;;5047458;28;20527;-77
2022/06/11 12:28:54;;;;;;;0.70;0.50;;;;;;;;;;5076109;28;20416;-76
2022/06/11 12:31:31;;;;;;;0.70;0.50;;;;;;;;;;5063836;28;20427;-76
2022/06/11 12:33:58;;;;;;;0.70;0.50;;;;;;;;;;5053157;28;20445;-75
2022/06/11 12:36:32;;;;;;;0.70;0.60;;;;;;;;;;5054570;28;20454;-77
2022/06/11 12:39:04;;;;;;;0.70;0.50;;;;;;;;;;5055447;28;20460;-76
2022/06/11 12:41:40;;;;;;;0.70;0.50;;;;;;;;;;5054411;28;20436;-75
2022/06/11 12:44:23;;;;;;;0.70;0.50;;;;;;;;;;5048591;28;21040;-75
2022/06/11 12:46:53;;;;;;;0.70;0.53;;;;;;;;;;5050689;28;20445;-73
2022/06/11 12:49:23;;;;;;;0.70;0.50;;;;;;;;;;5056380;28;20474;-75
2022/06/11 12:52:00;;;;;;;0.70;0.50;;;;;;;;;;5066332;28;20482;-76
2022/06/11 12:54:45;;;;;;;0.70;0.50;;;;;;;;;;5051742;28;20438;-76
2022/06/11 12:57:20;;;;;;;0.70;0.50;;;;;;;;;;5044713;28;20476;-75
2022/06/11 12:59:54;;;;;;;0.70;0.50;;;;;;;;;;5055191;28;20781;-76
2022/06/11 13:02:28;;;;;;;0.70;0.50;;;;;;;;;;5059321;28;20470;-76
2022/06/11 13:05:10;;;;;;;0.70;0.50;;;;;;;;;;5073798;28;20959;-75
2022/06/11 13:07:41;;;;;;;0.70;0.50;;;;;;;;;;5054216;28;20487;-76
2022/06/11 13:10:19;;;;;;;0.70;0.50;;;;;;;;;;5052877;28;20443;-76
2022/06/11 13:12:52;;;;;;;0.80;0.50;;;;;;;;;;5053970;28;20450;-75
2022/06/11 13:15:37;;;;;;;0.70;0.50;;;;;;;;;;5054405;28;20987;-76
2022/06/11 13:18:10;;;;;;;0.70;0.50;;;;;;;;;;5059974;28;21001;-75
2022/06/11 13:20:44;;;;;;;0.70;0.50;;;;;;;;;;5044703;28;20423;-74
2022/06/11 13:23:14;;;;;;;0.70;0.50;;;;;;;;;;5054982;28;20501;-76
2022/06/11 13:25:57;;;;;;;0.70;0.50;;;;;;;;;;5037613;28;20452;-78
2022/06/11 13:28:37;;;;;;;0.70;0.53;;;;;;;;;;5053719;28;20436;-77
2022/06/11 13:31:06;;;;;;;0.70;0.50;;;;;;;;;;5054940;28;20416;-76
2022/06/11 13:33:40;;;;;;;0.70;0.50;;;;;;;;;;5052549;28;20440;-76
2022/06/11 13:36:13;;;;;;;0.70;0.50;;;;;;;;;;5068282;28;20525;-76
2022/06/11 13:39:01;;;;;;;0.80;0.50;;;;;;;;;;5054151;28;21057;-76
2022/06/11 13:41:35;;;;;;;0.77;0.50;;;;;;;;;;5053527;28;20448;-75
2022/06/11 13:44:10;;;;;;;0.80;0.50;;;;;;;;;;5053079;28;20498;-76
2022/06/11 13:46:49;;;;;;;0.80;0.50;;;;;;;;;;5055215;28;20493;-76
2022/06/11 13:49:23;;;;;;;0.80;0.50;;;;;;;;;;5072065;28;20632;-75
2022/06/11 13:51:54;;;;;;;0.80;0.50;;;;;;;;;;5040554;28;21005;-77
2022/06/11 13:57:25;;;;;;;0.80;0.50;;;;;;;;;;5040534;28;20458;-77
2022/06/11 14:00:11;;;;;;;0.80;0.50;;;;;;;;;;5036305;28;20494;-75
2022/06/11 14:02:56;;;;;;;0.80;0.50;;;;;;;;;;5067643;28;20484;-75
2022/06/11 14:05:27;;;;;;;0.80;0.50;;;;;;;;;;5056932;28;20439;-74
2022/06/11 14:07:55;;;;;;;0.80;0.50;;;;;;;;;;5056106;28;20482;-77
2022/06/11 14:10:39;;;;;;;0.80;0.50;;;;;;;;;;5053199;28;20455;-76
2022/06/11 14:13:09;;;;;;;0.80;0.50;;;;;;;;;;5069855;28;20413;-75
2022/06/11 14:15:41;;;;;;;0.80;0.50;;;;;;;;;;5052967;28;20444;-76
2022/06/11 14:18:26;;;;;;;0.80;0.50;;;;;;;;;;5057177;28;21006;-75
2022/06/11 14:20:56;;;;;;;0.80;0.50;;;;;;;;;;5053486;28;20505;-75
2022/06/11 14:23:43;;;;;;;0.80;0.50;;;;;;;;;;5053325;28;20486;-74
2022/06/11 14:26:28;;;;;;;0.80;0.50;;;;;;;;;;5053174;28;20448;-75
2022/06/11 14:28:57;;;;;;;0.80;0.50;;;;;;;;;;5053278;28;20427;-76
2022/06/11 14:31:26;;;;;;;0.80;0.50;;;;;;;;;;5069457;28;20485;-76
2022/06/11 14:34:18;;;;;;;0.80;0.50;;;;;;;;;;5051727;28;20463;-75
2022/06/11 14:37:01;;;;;;;0.80;0.60;;;;;;;;;;5052198;28;20464;-75
2022/06/11 14:39:30;;;;;;;0.80;0.50;;;;;;;;;;5033244;28;20473;-75
2022/06/11 14:42:09;;;;;;;0.80;0.60;;;;;;;;;;5045881;28;20954;-75
2022/06/11 14:44:36;;;;;;;0.80;0.50;;;;;;;;;;5036281;28;20999;-75
2022/06/11 14:47:24;;;;;;;0.80;0.50;;;;;;;;;;5052727;28;20451;-76
2022/06/11 14:49:51;;;;;;;0.80;0.50;;;;;;;;;;5053725;28;20444;-74
2022/06/11 14:52:45;;;;;;;0.80;0.50;;;;;;;;;;5053576;28;20487;-75
2022/06/11 14:55:17;;;;;;;0.80;0.50;;;;;;;;;;5052524;28;20455;-75
2022/06/11 14:57:53;;;;;;;0.80;0.50;;;;;;;;;;5034968;28;20445;-75
2022/06/11 15:00:35;;;;;;;0.80;0.50;;;;;;;;;;5040503;28;20484;-75
2022/06/11 15:03:12;;;;;;;0.80;0.50;;;;;;;;;;5036008;28;20537;-75
2022/06/11 15:05:47;;;;;;;0.80;0.50;;;;;;;;;;5051526;28;20439;-76
2022/06/11 15:08:28;;;;;;;0.80;0.50;;;;;;;;;;5037820;28;20495;-75
2022/06/11 15:11:00;;;;;;;0.87;0.50;;;;;;;;;;5031817;28;20467;-76
2022/06/11 15:13:49;;;;;;;0.87;0.50;;;;;;;;;;5032047;28;20441;-74